Impacts TAF Board INFO
FOR SITUATIONAL AWARENESS. NOT TO BE USED FOR FLIGHT PLANNING PURPOSES.
IDs:

KIAD - Washington/Dulles In, VA, US

Issued at 1433 UTC 16 Dec 2017
Updated at 1642 UTC 16 Dec 2017
Potential Impact None Slight Moderate High
Time1552Z 16/17Z 16/18Z 16/19Z 16/20Z 16/21Z 16/22Z 16/23Z 17/00Z 17/01Z 17/02Z 17/03Z 17/04Z 17/05Z>>
Type OBS PRVL PRVL PRVL PRVL PRVL PRVL PRVL PRVL PRVL PRVL PRVL PRVL PRVL
VIS 10 >6 >6 >6 >6 >6 >6 >6 >6 >6 >6 >6 >6 >6
CIG -- -- -- -- -- -- -- -- -- -- -- -- -- --
Cover FEW SCT SCT SCT SCT SCT SCT FEW FEW FEW FEW FEW FEW FEW
FltCat VFR VFR VFR VFR VFR VFR VFR VFR VFR VFR VFR VFR VFR VFR
WX -- -- -- -- -- -- -- -- -- -- -- -- -- --
WDir 210 240 240 240 240 240 240 250 250 250 250 250 250 VRB
WSpd 14 11 11 11 11 11 11 6 6 6 6 6 6 0
WGst 21 -- -- -- -- -- -- -- -- -- -- -- -- --

Raw TAF
KIAD 161433Z 1615/1718 22008KT P6SM SCT250
  FM161700 24011KT P6SM SCT100
  FM162300 25006KT P6SM FEW250
  FM170500 00000KT P6SM FEW200


Raw METAR
KIAD 161552Z 21014G21KT 10SM FEW140 03/M05 A3014 RMK AO2 SLP208 T00331050
KIAD 161452Z 20009KT 10SM FEW060 FEW140 01/M05 A3015 RMK AO2 SLP214 T00061050 51011
KIAD 161352Z 19010KT 10SM FEW055 FEW120 M02/M06 A3014 RMK AO2 SLP210 T10221056

METAR Board
Radar Display
Forecast Discussion

FOR SITUATIONAL AWARENESS. NOT TO BE USED FOR FLIGHT PLANNING PURPOSES.